sensor_id;sensor_type;location;lat;lon;timestamp;temperature;humidity
68648;SHT31;55632;51.962;16.116;2023-05-07T00:02:43;8.16;90.22
68648;SHT31;55632;51.962;16.116;2023-05-07T00:07:44;8.18;90.18
68648;SHT31;55632;51.962;16.116;2023-05-07T00:12:45;8.15;90.15
68648;SHT31;55632;51.962;16.116;2023-05-07T00:17:46;8.18;90.07
68648;SHT31;55632;51.962;16.116;2023-05-07T00:22:47;8.13;90.06
68648;SHT31;55632;51.962;16.116;2023-05-07T00:27:47;8.15;90.07
68648;SHT31;55632;51.962;16.116;2023-05-07T00:32:51;8.12;90.10
68648;SHT31;55632;51.962;16.116;2023-05-07T00:37:52;8.10;90.11
68648;SHT31;55632;51.962;16.116;2023-05-07T00:42:53;8.10;90.16
68648;SHT31;55632;51.962;16.116;2023-05-07T00:48:01;8.06;90.15
68648;SHT31;55632;51.962;16.116;2023-05-07T00:53:03;8.08;90.12
68648;SHT31;55632;51.962;16.116;2023-05-07T00:58:04;8.09;90.11
68648;SHT31;55632;51.962;16.116;2023-05-07T01:03:07;8.08;90.11
68648;SHT31;55632;51.962;16.116;2023-05-07T01:08:08;8.05;89.96
68648;SHT31;55632;51.962;16.116;2023-05-07T01:13:09;8.02;89.98
68648;SHT31;55632;51.962;16.116;2023-05-07T01:18:11;7.99;89.92
68648;SHT31;55632;51.962;16.116;2023-05-07T01:23:12;7.98;89.87
68648;SHT31;55632;51.962;16.116;2023-05-07T01:28:13;7.97;89.86
68648;SHT31;55632;51.962;16.116;2023-05-07T01:33:19;7.95;89.81
68648;SHT31;55632;51.962;16.116;2023-05-07T01:38:22;7.91;89.79
68648;SHT31;55632;51.962;16.116;2023-05-07T01:43:24;7.88;89.80
68648;SHT31;55632;51.962;16.116;2023-05-07T01:48:25;7.88;89.76
68648;SHT31;55632;51.962;16.116;2023-05-07T01:53:27;7.87;89.79
68648;SHT31;55632;51.962;16.116;2023-05-07T01:58:29;7.83;89.80
68648;SHT31;55632;51.962;16.116;2023-05-07T02:03:29;7.81;89.75
68648;SHT31;55632;51.962;16.116;2023-05-07T02:08:39;7.81;89.72
68648;SHT31;55632;51.962;16.116;2023-05-07T02:13:41;7.80;89.71
68648;SHT31;55632;51.962;16.116;2023-05-07T02:18:42;7.78;89.68
68648;SHT31;55632;51.962;16.116;2023-05-07T02:23:43;7.77;89.68
68648;SHT31;55632;51.962;16.116;2023-05-07T02:28:43;7.75;89.70
68648;SHT31;55632;51.962;16.116;2023-05-07T02:33:44;7.77;89.59
68648;SHT31;55632;51.962;16.116;2023-05-07T02:38:47;7.74;89.61
68648;SHT31;55632;51.962;16.116;2023-05-07T02:43:47;7.73;89.58
68648;SHT31;55632;51.962;16.116;2023-05-07T02:48:51;7.71;89.59
68648;SHT31;55632;51.962;16.116;2023-05-07T02:53:55;7.70;89.64
68648;SHT31;55632;51.962;16.116;2023-05-07T02:58:56;7.70;89.60
68648;SHT31;55632;51.962;16.116;2023-05-07T03:04:00;7.70;89.45
68648;SHT31;55632;51.962;16.116;2023-05-07T03:09:01;7.69;89.35
68648;SHT31;55632;51.962;16.116;2023-05-07T03:14:03;7.66;89.45
68648;SHT31;55632;51.962;16.116;2023-05-07T03:19:05;7.66;89.47
68648;SHT31;55632;51.962;16.116;2023-05-07T03:24:05;7.64;89.30
68648;SHT31;55632;51.962;16.116;2023-05-07T03:29:06;7.63;89.20
68648;SHT31;55632;51.962;16.116;2023-05-07T03:34:07;7.60;89.11
68648;SHT31;55632;51.962;16.116;2023-05-07T03:39:07;7.57;89.08
68648;SHT31;55632;51.962;16.116;2023-05-07T03:44:13;7.56;88.91
68648;SHT31;55632;51.962;16.116;2023-05-07T03:49:15;7.55;88.96
68648;SHT31;55632;51.962;16.116;2023-05-07T03:54:15;7.55;88.96
68648;SHT31;55632;51.962;16.116;2023-05-07T03:59:19;7.56;88.84
68648;SHT31;55632;51.962;16.116;2023-05-07T04:04:21;7.57;88.91
68648;SHT31;55632;51.962;16.116;2023-05-07T04:09:22;7.57;88.74
68648;SHT31;55632;51.962;16.116;2023-05-07T04:14:23;7.59;88.73
68648;SHT31;55632;51.962;16.116;2023-05-07T04:19:24;7.63;88.68
68648;SHT31;55632;51.962;16.116;2023-05-07T04:24:32;7.64;88.59
68648;SHT31;55632;51.962;16.116;2023-05-07T04:29:35;7.69;88.48
68648;SHT31;55632;51.962;16.116;2023-05-07T04:34:36;7.74;88.40
68648;SHT31;55632;51.962;16.116;2023-05-07T04:39:37;7.75;88.37
68648;SHT31;55632;51.962;16.116;2023-05-07T04:44:41;7.81;88.25
68648;SHT31;55632;51.962;16.116;2023-05-07T04:49:42;7.87;88.24
68648;SHT31;55632;51.962;16.116;2023-05-07T04:54:48;7.94;88.06
68648;SHT31;55632;51.962;16.116;2023-05-07T04:59:50;8.02;87.85
68648;SHT31;55632;51.962;16.116;2023-05-07T05:04:51;8.36;88.29
68648;SHT31;55632;51.962;16.116;2023-05-07T05:09:52;8.71;87.31
68648;SHT31;55632;51.962;16.116;2023-05-07T05:14:54;8.85;86.18
68648;SHT31;55632;51.962;16.116;2023-05-07T05:19:55;8.99;86.13
68648;SHT31;55632;51.962;16.116;2023-05-07T05:24:57;9.12;85.71
68648;SHT31;55632;51.962;16.116;2023-05-07T05:29:58;9.19;85.46
68648;SHT31;55632;51.962;16.116;2023-05-07T05:34:59;9.16;84.68
68648;SHT31;55632;51.962;16.116;2023-05-07T05:40:00;9.08;84.43
68648;SHT31;55632;51.962;16.116;2023-05-07T05:45:05;9.06;84.33
68648;SHT31;55632;51.962;16.116;2023-05-07T05:50:07;9.04;84.39
68648;SHT31;55632;51.962;16.116;2023-05-07T05:55:11;9.11;84.23
68648;SHT31;55632;51.962;16.116;2023-05-07T06:00:13;9.19;83.66
68648;SHT31;55632;51.962;16.116;2023-05-07T06:05:19;9.26;83.31
68648;SHT31;55632;51.962;16.116;2023-05-07T06:10:24;9.34;83.15
68648;SHT31;55632;51.962;16.116;2023-05-07T06:15:29;9.47;82.48
68648;SHT31;55632;51.962;16.116;2023-05-07T06:20:31;9.47;82.03
68648;SHT31;55632;51.962;16.116;2023-05-07T06:25:34;9.43;82.14
68648;SHT31;55632;51.962;16.116;2023-05-07T06:30:38;9.48;82.36
68648;SHT31;55632;51.962;16.116;2023-05-07T06:35:40;9.52;81.99
68648;SHT31;55632;51.962;16.116;2023-05-07T06:40:41;9.48;81.68
68648;SHT31;55632;51.962;16.116;2023-05-07T06:45:42;9.47;81.45
68648;SHT31;55632;51.962;16.116;2023-05-07T06:50:44;9.50;81.46
68648;SHT31;55632;51.962;16.116;2023-05-07T06:55:46;9.52;81.12
68648;SHT31;55632;51.962;16.116;2023-05-07T07:00:48;9.54;81.26
68648;SHT31;55632;51.962;16.116;2023-05-07T07:05:53;9.55;81.00
68648;SHT31;55632;51.962;16.116;2023-05-07T07:10:54;9.58;80.83
68648;SHT31;55632;51.962;16.116;2023-05-07T07:15:56;9.62;80.64
68648;SHT31;55632;51.962;16.116;2023-05-07T07:20:57;9.59;79.98
68648;SHT31;55632;51.962;16.116;2023-05-07T07:25:58;9.62;79.78
68648;SHT31;55632;51.962;16.116;2023-05-07T07:31:00;9.70;79.67
68648;SHT31;55632;51.962;16.116;2023-05-07T07:36:01;9.79;79.59
68648;SHT31;55632;51.962;16.116;2023-05-07T07:41:02;9.95;79.02
68648;SHT31;55632;51.962;16.116;2023-05-07T07:46:04;10.08;79.06
68648;SHT31;55632;51.962;16.116;2023-05-07T07:51:06;10.14;78.09
68648;SHT31;55632;51.962;16.116;2023-05-07T07:56:07;10.30;78.40
68648;SHT31;55632;51.962;16.116;2023-05-07T08:01:09;10.67;77.67
68648;SHT31;55632;51.962;16.116;2023-05-07T08:06:10;11.06;77.10
68648;SHT31;55632;51.962;16.116;2023-05-07T08:11:12;11.35;75.39
68648;SHT31;55632;51.962;16.116;2023-05-07T08:16:13;11.55;75.04
68648;SHT31;55632;51.962;16.116;2023-05-07T08:21:14;11.82;74.18
68648;SHT31;55632;51.962;16.116;2023-05-07T08:26:16;12.00;73.48
68648;SHT31;55632;51.962;16.116;2023-05-07T08:31:17;11.89;72.39
68648;SHT31;55632;51.962;16.116;2023-05-07T08:36:20;11.79;71.87
68648;SHT31;55632;51.962;16.116;2023-05-07T08:41:21;11.82;71.63
68648;SHT31;55632;51.962;16.116;2023-05-07T08:46:27;11.90;71.16
68648;SHT31;55632;51.962;16.116;2023-05-07T08:51:41;11.96;70.87
68648;SHT31;55632;51.962;16.116;2023-05-07T08:56:42;12.09;70.12
68648;SHT31;55632;51.962;16.116;2023-05-07T09:01:43;12.16;69.59
68648;SHT31;55632;51.962;16.116;2023-05-07T09:06:45;12.10;69.04
68648;SHT31;55632;51.962;16.116;2023-05-07T09:11:56;12.07;68.54
68648;SHT31;55632;51.962;16.116;2023-05-07T09:17:00;12.02;67.73
68648;SHT31;55632;51.962;16.116;2023-05-07T09:22:03;11.96;67.88
68648;SHT31;55632;51.962;16.116;2023-05-07T09:27:12;11.99;68.29
68648;SHT31;55632;51.962;16.116;2023-05-07T09:32:17;12.03;67.96
68648;SHT31;55632;51.962;16.116;2023-05-07T09:37:19;12.16;68.32
68648;SHT31;55632;51.962;16.116;2023-05-07T09:42:24;12.20;67.55
68648;SHT31;55632;51.962;16.116;2023-05-07T09:47:32;12.21;67.76
68648;SHT31;55632;51.962;16.116;2023-05-07T09:52:36;12.27;67.10
68648;SHT31;55632;51.962;16.116;2023-05-07T09:57:41;12.38;67.25
68648;SHT31;55632;51.962;16.116;2023-05-07T10:02:45;12.46;66.70
68648;SHT31;55632;51.962;16.116;2023-05-07T10:07:49;12.48;66.75
68648;SHT31;55632;51.962;16.116;2023-05-07T10:12:57;12.46;66.63
68648;SHT31;55632;51.962;16.116;2023-05-07T10:18:06;12.46;66.74
68648;SHT31;55632;51.962;16.116;2023-05-07T10:23:09;12.59;66.70
68648;SHT31;55632;51.962;16.116;2023-05-07T10:28:17;12.76;66.08
68648;SHT31;55632;51.962;16.116;2023-05-07T10:33:27;12.85;64.41
68648;SHT31;55632;51.962;16.116;2023-05-07T10:38:30;12.96;64.70
68648;SHT31;55632;51.962;16.116;2023-05-07T10:43:42;13.04;64.04
68648;SHT31;55632;51.962;16.116;2023-05-07T11:04:33;13.14;64.27
68648;SHT31;55632;51.962;16.116;2023-05-07T11:10:04;13.14;64.01
68648;SHT31;55632;51.962;16.116;2023-05-07T11:15:35;13.15;63.57
68648;SHT31;55632;51.962;16.116;2023-05-07T11:20:46;13.04;62.30
68648;SHT31;55632;51.962;16.116;2023-05-07T11:26:14;13.10;62.83
68648;SHT31;55632;51.962;16.116;2023-05-07T11:31:24;13.18;62.64
68648;SHT31;55632;51.962;16.116;2023-05-07T11:36:32;13.18;62.55
68648;SHT31;55632;51.962;16.116;2023-05-07T11:41:35;13.31;63.00
68648;SHT31;55632;51.962;16.116;2023-05-07T11:46:43;13.59;62.30
68648;SHT31;55632;51.962;16.116;2023-05-07T11:51:45;13.96;62.19
68648;SHT31;55632;51.962;16.116;2023-05-07T11:56:47;14.04;61.38
68648;SHT31;55632;51.962;16.116;2023-05-07T12:01:47;14.09;61.65
68648;SHT31;55632;51.962;16.116;2023-05-07T12:06:48;14.07;61.55
68648;SHT31;55632;51.962;16.116;2023-05-07T12:11:52;13.99;61.24
68648;SHT31;55632;51.962;16.116;2023-05-07T12:16:53;13.93;61.21
68648;SHT31;55632;51.962;16.116;2023-05-07T12:21:54;13.97;61.05
68648;SHT31;55632;51.962;16.116;2023-05-07T12:26:55;13.96;60.81
68648;SHT31;55632;51.962;16.116;2023-05-07T12:31:56;13.97;60.73
68648;SHT31;55632;51.962;16.116;2023-05-07T12:36:57;14.04;60.71
68648;SHT31;55632;51.962;16.116;2023-05-07T12:41:59;14.24;60.52
68648;SHT31;55632;51.962;16.116;2023-05-07T12:47:03;14.39;59.42
68648;SHT31;55632;51.962;16.116;2023-05-07T12:52:05;14.46;59.20
68648;SHT31;55632;51.962;16.116;2023-05-07T12:57:08;14.46;59.44
68648;SHT31;55632;51.962;16.116;2023-05-07T13:02:09;14.42;59.48
68648;SHT31;55632;51.962;16.116;2023-05-07T13:07:11;14.44;59.84
68648;SHT31;55632;51.962;16.116;2023-05-07T13:12:12;14.53;59.83
68648;SHT31;55632;51.962;16.116;2023-05-07T13:17:15;14.66;59.09
68648;SHT31;55632;51.962;16.116;2023-05-07T13:22:16;14.66;58.79
68648;SHT31;55632;51.962;16.116;2023-05-07T13:27:17;14.58;58.99
68648;SHT31;55632;51.962;16.116;2023-05-07T13:32:19;14.55;59.29
68648;SHT31;55632;51.962;16.116;2023-05-07T13:37:20;14.59;59.10
68648;SHT31;55632;51.962;16.116;2023-05-07T13:42:21;14.68;59.72
68648;SHT31;55632;51.962;16.116;2023-05-07T13:47:22;14.53;59.15
68648;SHT31;55632;51.962;16.116;2023-05-07T13:52:23;14.41;58.89
68648;SHT31;55632;51.962;16.116;2023-05-07T13:57:24;14.37;59.16
68648;SHT31;55632;51.962;16.116;2023-05-07T14:02:25;14.42;59.62
68648;SHT31;55632;51.962;16.116;2023-05-07T14:07:26;14.51;59.80
68648;SHT31;55632;51.962;16.116;2023-05-07T14:12:27;14.49;59.35
68648;SHT31;55632;51.962;16.116;2023-05-07T14:17:28;14.29;59.63
68648;SHT31;55632;51.962;16.116;2023-05-07T14:22:32;14.14;59.82
68648;SHT31;55632;51.962;16.116;2023-05-07T14:27:33;14.24;60.48
68648;SHT31;55632;51.962;16.116;2023-05-07T14:32:34;14.28;59.93
68648;SHT31;55632;51.962;16.116;2023-05-07T14:37:35;14.32;59.85
68648;SHT31;55632;51.962;16.116;2023-05-07T14:42:38;14.28;58.51
68648;SHT31;55632;51.962;16.116;2023-05-07T14:47:41;14.13;58.48
68648;SHT31;55632;51.962;16.116;2023-05-07T14:52:44;14.14;58.88
68648;SHT31;55632;51.962;16.116;2023-05-07T14:57:45;14.18;58.51
68648;SHT31;55632;51.962;16.116;2023-05-07T15:02:46;14.09;58.34
68648;SHT31;55632;51.962;16.116;2023-05-07T15:07:47;14.07;59.45
68648;SHT31;55632;51.962;16.116;2023-05-07T15:12:48;14.14;60.47
68648;SHT31;55632;51.962;16.116;2023-05-07T15:17:49;14.22;61.51
68648;SHT31;55632;51.962;16.116;2023-05-07T15:22:50;14.38;60.68
68648;SHT31;55632;51.962;16.116;2023-05-07T15:27:50;14.44;59.84
68648;SHT31;55632;51.962;16.116;2023-05-07T15:32:55;14.31;58.76
68648;SHT31;55632;51.962;16.116;2023-05-07T15:37:56;14.11;58.36
68648;SHT31;55632;51.962;16.116;2023-05-07T15:42:56;14.11;58.83
68648;SHT31;55632;51.962;16.116;2023-05-07T15:47:57;13.90;59.35
68648;SHT31;55632;51.962;16.116;2023-05-07T15:53:01;13.76;59.55
68648;SHT31;55632;51.962;16.116;2023-05-07T15:58:03;13.82;59.08
68648;SHT31;55632;51.962;16.116;2023-05-07T16:03:06;13.91;58.77
68648;SHT31;55632;51.962;16.116;2023-05-07T16:08:08;13.86;58.25
68648;SHT31;55632;51.962;16.116;2023-05-07T16:13:09;13.68;58.08
68648;SHT31;55632;51.962;16.116;2023-05-07T16:18:12;13.57;58.11
68648;SHT31;55632;51.962;16.116;2023-05-07T16:23:21;13.51;58.30
68648;SHT31;55632;51.962;16.116;2023-05-07T16:28:22;13.41;58.15
68648;SHT31;55632;51.962;16.116;2023-05-07T16:33:23;13.35;57.67
68648;SHT31;55632;51.962;16.116;2023-05-07T16:38:26;13.27;58.39
68648;SHT31;55632;51.962;16.116;2023-05-07T16:43:32;13.10;59.48
68648;SHT31;55632;51.962;16.116;2023-05-07T16:48:34;12.97;59.11
68648;SHT31;55632;51.962;16.116;2023-05-07T16:53:37;12.86;59.06
68648;SHT31;55632;51.962;16.116;2023-05-07T16:58:41;12.79;59.51
68648;SHT31;55632;51.962;16.116;2023-05-07T17:03:45;12.68;59.86
68648;SHT31;55632;51.962;16.116;2023-05-07T17:08:51;12.61;59.58
68648;SHT31;55632;51.962;16.116;2023-05-07T17:13:55;12.49;59.60
68648;SHT31;55632;51.962;16.116;2023-05-07T17:18:58;12.31;59.04
68648;SHT31;55632;51.962;16.116;2023-05-07T17:23:59;12.16;58.98
68648;SHT31;55632;51.962;16.116;2023-05-07T17:29:03;12.00;59.83
68648;SHT31;55632;51.962;16.116;2023-05-07T17:34:04;11.85;60.89
68648;SHT31;55632;51.962;16.116;2023-05-07T17:39:05;11.71;61.12
68648;SHT31;55632;51.962;16.116;2023-05-07T17:44:07;11.57;61.35
68648;SHT31;55632;51.962;16.116;2023-05-07T17:49:10;11.48;62.21
68648;SHT31;55632;51.962;16.116;2023-05-07T17:54:11;11.37;62.72
68648;SHT31;55632;51.962;16.116;2023-05-07T17:59:12;11.20;63.26
68648;SHT31;55632;51.962;16.116;2023-05-07T18:04:12;11.06;63.86
68648;SHT31;55632;51.962;16.116;2023-05-07T18:09:13;10.93;64.52
68648;SHT31;55632;51.962;16.116;2023-05-07T18:14:14;10.80;65.00
68648;SHT31;55632;51.962;16.116;2023-05-07T18:19:16;10.68;65.47
68648;SHT31;55632;51.962;16.116;2023-05-07T18:24:17;10.50;66.18
68648;SHT31;55632;51.962;16.116;2023-05-07T18:29:19;10.36;66.72
68648;SHT31;55632;51.962;16.116;2023-05-07T18:34:20;10.17;67.23
68648;SHT31;55632;51.962;16.116;2023-05-07T18:39:21;10.01;67.82
68648;SHT31;55632;51.962;16.116;2023-05-07T18:44:22;9.85;68.38
68648;SHT31;55632;51.962;16.116;2023-05-07T18:49:26;9.71;68.82
68648;SHT31;55632;51.962;16.116;2023-05-07T18:54:27;9.50;69.32
68648;SHT31;55632;51.962;16.116;2023-05-07T18:59:29;9.36;69.81
68648;SHT31;55632;51.962;16.116;2023-05-07T19:04:30;9.23;70.22
68648;SHT31;55632;51.962;16.116;2023-05-07T19:09:33;9.08;70.63
68648;SHT31;55632;51.962;16.116;2023-05-07T19:14:37;8.96;71.05
68648;SHT31;55632;51.962;16.116;2023-05-07T19:19:43;8.85;71.40
68648;SHT31;55632;51.962;16.116;2023-05-07T19:24:50;8.72;71.78
68648;SHT31;55632;51.962;16.116;2023-05-07T19:29:51;8.63;72.20
68648;SHT31;55632;51.962;16.116;2023-05-07T19:34:52;8.52;72.47
68648;SHT31;55632;51.962;16.116;2023-05-07T19:39:53;8.44;72.87
68648;SHT31;55632;51.962;16.116;2023-05-07T19:44:54;8.32;73.13
68648;SHT31;55632;51.962;16.116;2023-05-07T19:49:55;8.19;73.57
68648;SHT31;55632;51.962;16.116;2023-05-07T19:54:56;8.15;73.81
68648;SHT31;55632;51.962;16.116;2023-05-07T19:59:58;8.10;74.15
68648;SHT31;55632;51.962;16.116;2023-05-07T20:05:02;8.03;74.31
68648;SHT31;55632;51.962;16.116;2023-05-07T20:10:03;7.98;74.53
68648;SHT31;55632;51.962;16.116;2023-05-07T20:15:04;7.91;74.74
68648;SHT31;55632;51.962;16.116;2023-05-07T20:20:06;7.84;74.93
68648;SHT31;55632;51.962;16.116;2023-05-07T20:25:09;7.81;75.12
68648;SHT31;55632;51.962;16.116;2023-05-07T20:30:11;7.74;75.32
68648;SHT31;55632;51.962;16.116;2023-05-07T20:35:12;7.66;75.61
68648;SHT31;55632;51.962;16.116;2023-05-07T20:40:15;7.63;75.95
68648;SHT31;55632;51.962;16.116;2023-05-07T20:45:19;7.56;76.23
68648;SHT31;55632;51.962;16.116;2023-05-07T20:50:26;7.50;76.41
68648;SHT31;55632;51.962;16.116;2023-05-07T20:55:27;7.50;76.43
68648;SHT31;55632;51.962;16.116;2023-05-07T21:00:28;7.43;76.47
68648;SHT31;55632;51.962;16.116;2023-05-07T21:05:30;7.40;76.55
68648;SHT31;55632;51.962;16.116;2023-05-07T21:10:32;7.36;76.60
68648;SHT31;55632;51.962;16.116;2023-05-07T21:15:35;7.32;76.60
68648;SHT31;55632;51.962;16.116;2023-05-07T21:20:36;7.26;76.62
68648;SHT31;55632;51.962;16.116;2023-05-07T21:25:37;7.22;76.65
68648;SHT31;55632;51.962;16.116;2023-05-07T21:30:40;7.15;76.65
68648;SHT31;55632;51.962;16.116;2023-05-07T21:35:41;7.09;76.62
68648;SHT31;55632;51.962;16.116;2023-05-07T21:40:42;6.97;76.64
68648;SHT31;55632;51.962;16.116;2023-05-07T21:45:43;6.88;76.64
68648;SHT31;55632;51.962;16.116;2023-05-07T21:50:43;6.77;76.68
68648;SHT31;55632;51.962;16.116;2023-05-07T21:55:45;6.70;76.77
68648;SHT31;55632;51.962;16.116;2023-05-07T22:00:49;6.65;76.79
68648;SHT31;55632;51.962;16.116;2023-05-07T22:05:50;6.62;76.75
68648;SHT31;55632;51.962;16.116;2023-05-07T22:10:50;6.52;76.74
68648;SHT31;55632;51.962;16.116;2023-05-07T22:15:51;6.49;76.71
68648;SHT31;55632;51.962;16.116;2023-05-07T22:20:53;6.39;76.79
68648;SHT31;55632;51.962;16.116;2023-05-07T22:25:54;6.38;76.78
68648;SHT31;55632;51.962;16.116;2023-05-07T22:30:55;6.32;76.73
68648;SHT31;55632;51.962;16.116;2023-05-07T22:35:55;6.25;76.73
68648;SHT31;55632;51.962;16.116;2023-05-07T22:40:57;6.18;76.74
68648;SHT31;55632;51.962;16.116;2023-05-07T22:45:59;6.06;76.62
68648;SHT31;55632;51.962;16.116;2023-05-07T22:51:00;5.90;76.80
68648;SHT31;55632;51.962;16.116;2023-05-07T22:56:04;5.86;76.99
68648;SHT31;55632;51.962;16.116;2023-05-07T23:01:16;5.80;77.09
68648;SHT31;55632;51.962;16.116;2023-05-07T23:06:18;5.79;77.16
68648;SHT31;55632;51.962;16.116;2023-05-07T23:11:18;5.69;77.03
68648;SHT31;55632;51.962;16.116;2023-05-07T23:16:19;5.54;77.01
68648;SHT31;55632;51.962;16.116;2023-05-07T23:21:20;5.39;77.10
68648;SHT31;55632;51.962;16.116;2023-05-07T23:26:21;5.28;77.24
68648;SHT31;55632;51.962;16.116;2023-05-07T23:31:23;5.18;77.47
68648;SHT31;55632;51.962;16.116;2023-05-07T23:36:23;5.10;77.75
68648;SHT31;55632;51.962;16.116;2023-05-07T23:41:24;5.09;77.92
68648;SHT31;55632;51.962;16.116;2023-05-07T23:46:25;5.01;78.01
68648;SHT31;55632;51.962;16.116;2023-05-07T23:51:26;4.94;78.12
68648;SHT31;55632;51.962;16.116;2023-05-07T23:56:27;4.87;78.22
